Grandview on Hudson, New York
Current Conditions -  °F | °C
As of 5:56 PM on Friday 28 Nov 2014 (Local Time) from KHPN Reporting Station
Clear Clear  
Wind Chill: 17°   Ceiling: Unl
Heat Index: 28°   Visibility: 10mi
Dew Point: 12°   Wind: 15mph
Humidity: 51%   Direction: 320°NW
Pressure: 30.2"   Gusts: NA
Location:  41.0938°N, 73.9254°W
Report Text: KHPN 282256Z 32013KT 10SM CLR M02/M11 A3020 RMK AO2 SLP236 T10221111
Loading
Personal Weather Stations






























Interactive Weather Map New forecast layout! Learn more

10-Day Weather Forecast

Advertisements
Track Severe Weather on mobile